Terminal Aerodrome Forecast
Issued by NWS Wilmington, NC

Home | Current Version | Previous Version | Text Only | Print | Product List | Glossary On
Versions: 1 2 3 4 5 6 7 8 9 10 11 12 13 14 15 16
000
FTUS42 KILM 301120
TAFILM
TAF
KILM 301120Z 3012/3112 21003KT P6SM FEW050 SCT120
     FM301500 23012G22KT P6SM VCSH SCT025 BKN040
      TEMPO 3018/3021 6SM -RA SCT015 BKN025
     FM302100 27012G20KT P6SM SCT020 SCT050
     FM302300 29004KT P6SM SCT050
     FM310600 35003KT P6SM SKC=

USA.gov is the U.S. government's official web portal to all federal, state and local government web resources and services.